sensor_id;sensor_type;location;lat;lon;timestamp;pressure;altitude;pressure_sealevel;temperature;humidity
54936;BME280;40838;50.676;7.838;2022-12-18T00:00:05;99500.31;;;-6.16;100.00
54936;BME280;40838;50.676;7.838;2022-12-18T00:02:39;99497.13;;;-6.20;100.00
54936;BME280;40838;50.676;7.838;2022-12-18T00:05:08;99506.16;;;-6.27;100.00
54936;BME280;40838;50.676;7.838;2022-12-18T00:07:35;99510.78;;;-6.32;100.00
54936;BME280;40838;50.676;7.838;2022-12-18T00:10:03;99511.38;;;-6.41;100.00
54936;BME280;40838;50.676;7.838;2022-12-18T00:12:30;99504.00;;;-6.86;100.00
54936;BME280;40838;50.676;7.838;2022-12-18T00:14:57;99499.59;;;-6.83;100.00
54936;BME280;40838;50.676;7.838;2022-12-18T00:17:24;99514.59;;;-6.90;100.00
54936;BME280;40838;50.676;7.838;2022-12-18T00:19:53;99517.47;;;-7.09;100.00
54936;BME280;40838;50.676;7.838;2022-12-18T00:22:21;99508.72;;;-7.19;100.00
54936;BME280;40838;50.676;7.838;2022-12-18T00:24:48;99515.81;;;-7.37;100.00
54936;BME280;40838;50.676;7.838;2022-12-18T00:27:15;99503.44;;;-7.31;100.00
54936;BME280;40838;50.676;7.838;2022-12-18T00:29:42;99507.63;;;-7.57;100.00
54936;BME280;40838;50.676;7.838;2022-12-18T00:32:09;99492.44;;;-7.74;100.00
54936;BME280;40838;50.676;7.838;2022-12-18T00:34:36;99481.97;;;-7.57;100.00
54936;BME280;40838;50.676;7.838;2022-12-18T00:37:03;99493.63;;;-7.65;100.00
54936;BME280;40838;50.676;7.838;2022-12-18T00:39:32;99491.31;;;-7.70;100.00
54936;BME280;40838;50.676;7.838;2022-12-18T00:42:00;99491.31;;;-7.70;100.00
54936;BME280;40838;50.676;7.838;2022-12-18T00:44:45;99488.13;;;-7.59;100.00
54936;BME280;40838;50.676;7.838;2022-12-18T00:47:13;99485.56;;;-7.32;100.00
54936;BME280;40838;50.676;7.838;2022-12-18T00:49:40;99498.28;;;-7.16;100.00
54936;BME280;40838;50.676;7.838;2022-12-18T00:52:07;99494.81;;;-7.02;100.00
54936;BME280;40838;50.676;7.838;2022-12-18T00:54:35;99502.75;;;-7.20;100.00
54936;BME280;40838;50.676;7.838;2022-12-18T00:57:02;99505.28;;;-7.47;100.00
54936;BME280;40838;50.676;7.838;2022-12-18T00:59:29;99505.75;;;-7.55;100.00
54936;BME280;40838;50.676;7.838;2022-12-18T01:01:56;99510.38;;;-7.88;100.00
54936;BME280;40838;50.676;7.838;2022-12-18T01:04:23;99521.19;;;-8.12;100.00
54936;BME280;40838;50.676;7.838;2022-12-18T01:06:50;99512.53;;;-8.25;100.00
54936;BME280;40838;50.676;7.838;2022-12-18T01:09:17;99523.31;;;-8.49;100.00
54936;BME280;40838;50.676;7.838;2022-12-18T01:11:45;99513.22;;;-8.66;100.00
54936;BME280;40838;50.676;7.838;2022-12-18T01:14:12;99520.84;;;-8.80;100.00
54936;BME280;40838;50.676;7.838;2022-12-18T01:16:39;99513.41;;;-8.99;100.00
54936;BME280;40838;50.676;7.838;2022-12-18T01:19:06;99517.19;;;-8.91;100.00
54936;BME280;40838;50.676;7.838;2022-12-18T01:21:33;99509.75;;;-8.95;100.00
54936;BME280;40838;50.676;7.838;2022-12-18T01:24:04;99490.59;;;-8.58;100.00
54936;BME280;40838;50.676;7.838;2022-12-18T01:26:34;99506.72;;;-8.72;100.00
54936;BME280;40838;50.676;7.838;2022-12-18T01:29:02;99503.03;;;-8.52;100.00
54936;BME280;40838;50.676;7.838;2022-12-18T01:31:31;99512.38;;;-8.22;100.00
54936;BME280;40838;50.676;7.838;2022-12-18T01:34:02;99515.81;;;-8.37;100.00
54936;BME280;40838;50.676;7.838;2022-12-18T01:36:31;99511.00;;;-8.56;100.00
54936;BME280;40838;50.676;7.838;2022-12-18T01:38:59;99499.66;;;-8.82;100.00
54936;BME280;40838;50.676;7.838;2022-12-18T01:41:29;99497.72;;;-8.93;100.00
54936;BME280;40838;50.676;7.838;2022-12-18T01:44:57;99505.72;;;-8.99;100.00
54936;BME280;40838;50.676;7.838;2022-12-18T01:47:27;99502.25;;;-8.98;100.00
54936;BME280;40838;50.676;7.838;2022-12-18T01:49:57;99490.69;;;-8.90;100.00
54936;BME280;40838;50.676;7.838;2022-12-18T01:52:26;99492.75;;;-8.96;100.00
54936;BME280;40838;50.676;7.838;2022-12-18T01:54:55;99490.06;;;-9.09;100.00
54936;BME280;40838;50.676;7.838;2022-12-18T01:57:25;99480.91;;;-9.13;100.00
54936;BME280;40838;50.676;7.838;2022-12-18T01:59:55;99495.41;;;-8.98;100.00
54936;BME280;40838;50.676;7.838;2022-12-18T02:02:26;99492.47;;;-9.06;100.00
54936;BME280;40838;50.676;7.838;2022-12-18T02:04:54;99483.75;;;-9.18;100.00
54936;BME280;40838;50.676;7.838;2022-12-18T02:07:28;99487.06;;;-9.01;100.00
54936;BME280;40838;50.676;7.838;2022-12-18T02:10:03;99489.63;;;-8.85;100.00
54936;BME280;40838;50.676;7.838;2022-12-18T02:12:42;99488.56;;;-8.97;100.00
54936;BME280;40838;50.676;7.838;2022-12-18T02:15:15;99494.72;;;-8.85;100.00
54936;BME280;40838;50.676;7.838;2022-12-18T02:17:50;99499.84;;;-9.01;100.00
54936;BME280;40838;50.676;7.838;2022-12-18T02:20:21;99495.31;;;-8.96;100.00
54936;BME280;40838;50.676;7.838;2022-12-18T02:23:01;99497.88;;;-8.96;100.00
54936;BME280;40838;50.676;7.838;2022-12-18T02:28:26;99484.53;;;-8.71;100.00
54936;BME280;40838;50.676;7.838;2022-12-18T02:31:01;99486.06;;;-8.10;100.00
54936;BME280;40838;50.676;7.838;2022-12-18T02:33:33;99479.31;;;-7.69;100.00
54936;BME280;40838;50.676;7.838;2022-12-18T02:36:04;99481.22;;;-6.90;100.00
54936;BME280;40838;50.676;7.838;2022-12-18T02:38:33;99491.97;;;-6.45;100.00
54936;BME280;40838;50.676;7.838;2022-12-18T02:41:07;99495.97;;;-6.54;100.00
54936;BME280;40838;50.676;7.838;2022-12-18T02:43:37;99495.06;;;-6.27;100.00
54936;BME280;40838;50.676;7.838;2022-12-18T02:46:29;99490.44;;;-6.22;100.00
54936;BME280;40838;50.676;7.838;2022-12-18T02:49:08;99491.03;;;-6.06;100.00
54936;BME280;40838;50.676;7.838;2022-12-18T02:51:45;99488.56;;;-5.95;100.00
54936;BME280;40838;50.676;7.838;2022-12-18T02:54:25;99488.47;;;-5.93;100.00
54936;BME280;40838;50.676;7.838;2022-12-18T02:56:56;99480.78;;;-5.93;100.00
54936;BME280;40838;50.676;7.838;2022-12-18T02:59:33;99483.97;;;-6.02;100.00
54936;BME280;40838;50.676;7.838;2022-12-18T03:02:09;99490.63;;;-6.00;100.00
54936;BME280;40838;50.676;7.838;2022-12-18T03:04:48;99488.25;;;-6.03;100.00
54936;BME280;40838;50.676;7.838;2022-12-18T03:07:21;99477.59;;;-5.97;100.00
54936;BME280;40838;50.676;7.838;2022-12-18T03:09:53;99478.41;;;-5.96;100.00
54936;BME280;40838;50.676;7.838;2022-12-18T03:12:24;99471.78;;;-5.87;100.00
54936;BME280;40838;50.676;7.838;2022-12-18T03:15:00;99475.47;;;-5.92;100.00
54936;BME280;40838;50.676;7.838;2022-12-18T03:17:31;99475.28;;;-5.88;100.00
54936;BME280;40838;50.676;7.838;2022-12-18T03:20:07;99476.09;;;-5.88;100.00
54936;BME280;40838;50.676;7.838;2022-12-18T03:22:36;99471.88;;;-5.89;100.00
54936;BME280;40838;50.676;7.838;2022-12-18T03:25:09;99468.69;;;-5.80;100.00
54936;BME280;40838;50.676;7.838;2022-12-18T03:27:40;99458.94;;;-5.87;100.00
54936;BME280;40838;50.676;7.838;2022-12-18T03:30:14;99471.78;;;-5.87;100.00
54936;BME280;40838;50.676;7.838;2022-12-18T03:32:46;99463.22;;;-5.88;100.00
54936;BME280;40838;50.676;7.838;2022-12-18T03:35:19;99476.94;;;-5.87;100.00
54936;BME280;40838;50.676;7.838;2022-12-18T03:37:48;99484.09;;;-5.80;100.00
54936;BME280;40838;50.676;7.838;2022-12-18T03:40:16;99474.63;;;-5.79;100.00
54936;BME280;40838;50.676;7.838;2022-12-18T03:42:47;99485.97;;;-5.82;100.00
54936;BME280;40838;50.676;7.838;2022-12-18T03:45:23;99471.56;;;-5.84;100.00
54936;BME280;40838;50.676;7.838;2022-12-18T03:47:58;99453.88;;;-5.89;100.00
54936;BME280;40838;50.676;7.838;2022-12-18T03:50:37;99463.56;;;-5.93;100.00
54936;BME280;40838;50.676;7.838;2022-12-18T03:53:17;99461.38;;;-5.86;100.00
54936;BME280;40838;50.676;7.838;2022-12-18T03:55:50;99462.72;;;-5.80;100.00
54936;BME280;40838;50.676;7.838;2022-12-18T03:58:20;99460.97;;;-5.80;100.00
54936;BME280;40838;50.676;7.838;2022-12-18T04:01:04;99452.13;;;-5.76;100.00
54936;BME280;40838;50.676;7.838;2022-12-18T04:03:36;99447.50;;;-5.83;100.00
54936;BME280;40838;50.676;7.838;2022-12-18T04:06:06;99444.13;;;-5.84;100.00
54936;BME280;40838;50.676;7.838;2022-12-18T04:08:34;99442.38;;;-5.83;100.00
54936;BME280;40838;50.676;7.838;2022-12-18T04:11:05;99431.81;;;-5.67;100.00
54936;BME280;40838;50.676;7.838;2022-12-18T04:13:36;99432.84;;;-5.57;100.00
54936;BME280;40838;50.676;7.838;2022-12-18T04:16:08;99430.47;;;-5.60;100.00
54936;BME280;40838;50.676;7.838;2022-12-18T04:18:39;99429.72;;;-5.50;100.00
54936;BME280;40838;50.676;7.838;2022-12-18T04:21:07;99438.91;;;-5.34;100.00
54936;BME280;40838;50.676;7.838;2022-12-18T04:23:34;99440.19;;;-5.40;100.00
54936;BME280;40838;50.676;7.838;2022-12-18T04:26:03;99441.06;;;-5.28;100.00
54936;BME280;40838;50.676;7.838;2022-12-18T04:28:53;99439.84;;;-5.35;100.00
54936;BME280;40838;50.676;7.838;2022-12-18T04:31:21;99444.38;;;-5.39;100.00
54936;BME280;40838;50.676;7.838;2022-12-18T04:33:49;99445.25;;;-5.27;100.00
54936;BME280;40838;50.676;7.838;2022-12-18T04:36:16;99450.47;;;-5.16;100.00
54936;BME280;40838;50.676;7.838;2022-12-18T04:38:44;99438.75;;;-5.20;100.00
54936;BME280;40838;50.676;7.838;2022-12-18T04:41:14;99446.72;;;-5.36;100.00
54936;BME280;40838;50.676;7.838;2022-12-18T04:43:44;99438.78;;;-5.33;100.00
54936;BME280;40838;50.676;7.838;2022-12-18T04:46:10;99440.25;;;-5.53;100.00
54936;BME280;40838;50.676;7.838;2022-12-18T04:48:39;99467.41;;;-5.61;100.00
54936;BME280;40838;50.676;7.838;2022-12-18T04:51:06;99440.84;;;-5.49;100.00
54936;BME280;40838;50.676;7.838;2022-12-18T04:53:35;99449.66;;;-5.40;100.00
54936;BME280;40838;50.676;7.838;2022-12-18T04:56:03;99444.00;;;-5.45;100.00
54936;BME280;40838;50.676;7.838;2022-12-18T04:58:30;99449.81;;;-5.67;100.00
54936;BME280;40838;50.676;7.838;2022-12-18T05:00:57;99444.22;;;-5.49;100.00
54936;BME280;40838;50.676;7.838;2022-12-18T05:03:25;99443.22;;;-5.59;100.00
54936;BME280;40838;50.676;7.838;2022-12-18T05:05:53;99447.38;;;-5.69;100.00
54936;BME280;40838;50.676;7.838;2022-12-18T05:08:23;99443.25;;;-5.72;100.00
54936;BME280;40838;50.676;7.838;2022-12-18T05:10:59;99454.97;;;-5.67;100.00
54936;BME280;40838;50.676;7.838;2022-12-18T05:13:27;99441.38;;;-5.57;100.00
54936;BME280;40838;50.676;7.838;2022-12-18T05:15:54;99442.41;;;-5.59;100.00
54936;BME280;40838;50.676;7.838;2022-12-18T05:18:22;99438.06;;;-5.59;100.00
54936;BME280;40838;50.676;7.838;2022-12-18T05:20:49;99428.00;;;-5.62;100.00
54936;BME280;40838;50.676;7.838;2022-12-18T05:23:18;99425.34;;;-5.36;100.00
54936;BME280;40838;50.676;7.838;2022-12-18T05:25:59;99427.31;;;-5.40;100.00
54936;BME280;40838;50.676;7.838;2022-12-18T05:28:28;99434.44;;;-5.43;100.00
54936;BME280;40838;50.676;7.838;2022-12-18T05:30:57;99426.44;;;-5.28;100.00
54936;BME280;40838;50.676;7.838;2022-12-18T05:33:25;99420.91;;;-5.34;100.00
54936;BME280;40838;50.676;7.838;2022-12-18T05:35:53;99429.50;;;-5.22;100.00
54936;BME280;40838;50.676;7.838;2022-12-18T05:38:24;99421.94;;;-5.13;100.00
54936;BME280;40838;50.676;7.838;2022-12-18T05:40:52;99414.34;;;-5.03;100.00
54936;BME280;40838;50.676;7.838;2022-12-18T05:43:20;99411.59;;;-5.00;100.00
54936;BME280;40838;50.676;7.838;2022-12-18T05:45:48;99408.16;;;-5.12;100.00
54936;BME280;40838;50.676;7.838;2022-12-18T05:48:15;99409.78;;;-5.11;100.00
54936;BME280;40838;50.676;7.838;2022-12-18T05:50:44;99403.69;;;-5.10;100.00
54936;BME280;40838;50.676;7.838;2022-12-18T05:53:12;99379.03;;;-5.01;100.00
54936;BME280;40838;50.676;7.838;2022-12-18T05:55:42;99395.69;;;-4.94;100.00
54936;BME280;40838;50.676;7.838;2022-12-18T05:58:10;99407.13;;;-4.98;100.00
54936;BME280;40838;50.676;7.838;2022-12-18T06:00:39;99388.56;;;-4.90;100.00
54936;BME280;40838;50.676;7.838;2022-12-18T06:03:07;99410.44;;;-4.85;100.00
54936;BME280;40838;50.676;7.838;2022-12-18T06:05:34;99389.84;;;-4.85;100.00
54936;BME280;40838;50.676;7.838;2022-12-18T06:08:02;99384.84;;;-4.75;100.00
54936;BME280;40838;50.676;7.838;2022-12-18T06:10:30;99397.13;;;-4.79;100.00
54936;BME280;40838;50.676;7.838;2022-12-18T06:12:58;99402.63;;;-4.72;100.00
54936;BME280;40838;50.676;7.838;2022-12-18T06:15:25;99408.81;;;-4.74;100.00
54936;BME280;40838;50.676;7.838;2022-12-18T06:17:52;99419.06;;;-4.62;100.00
54936;BME280;40838;50.676;7.838;2022-12-18T06:20:19;99417.16;;;-4.60;100.00
54936;BME280;40838;50.676;7.838;2022-12-18T06:22:46;99416.34;;;-4.60;100.00
54936;BME280;40838;50.676;7.838;2022-12-18T06:25:12;99419.16;;;-4.63;100.00
54936;BME280;40838;50.676;7.838;2022-12-18T06:27:39;99430.66;;;-4.56;100.00
54936;BME280;40838;50.676;7.838;2022-12-18T06:30:09;99427.00;;;-4.65;100.00
54936;BME280;40838;50.676;7.838;2022-12-18T06:32:36;99438.72;;;-4.61;100.00
54936;BME280;40838;50.676;7.838;2022-12-18T06:35:04;99436.22;;;-4.62;100.00
54936;BME280;40838;50.676;7.838;2022-12-18T06:37:31;99432.75;;;-4.61;100.00
54936;BME280;40838;50.676;7.838;2022-12-18T06:40:00;99450.53;;;-4.58;100.00
54936;BME280;40838;50.676;7.838;2022-12-18T06:42:28;99450.66;;;-4.60;100.00
54936;BME280;40838;50.676;7.838;2022-12-18T06:44:55;99454.88;;;-4.59;100.00
54936;BME280;40838;50.676;7.838;2022-12-18T06:47:27;99469.06;;;-4.53;100.00
54936;BME280;40838;50.676;7.838;2022-12-18T06:49:54;99466.94;;;-4.59;100.00
54936;BME280;40838;50.676;7.838;2022-12-18T06:52:21;99456.84;;;-4.62;100.00
54936;BME280;40838;50.676;7.838;2022-12-18T06:54:48;99460.63;;;-4.55;100.00
54936;BME280;40838;50.676;7.838;2022-12-18T06:57:15;99450.78;;;-4.61;100.00
54936;BME280;40838;50.676;7.838;2022-12-18T06:59:42;99450.41;;;-4.68;100.00
54936;BME280;40838;50.676;7.838;2022-12-18T07:02:11;99448.69;;;-4.56;100.00
54936;BME280;40838;50.676;7.838;2022-12-18T07:04:39;99461.34;;;-4.53;100.00
54936;BME280;40838;50.676;7.838;2022-12-18T07:07:06;99452.53;;;-4.50;100.00
54936;BME280;40838;50.676;7.838;2022-12-18T07:09:33;99443.53;;;-4.56;100.00
54936;BME280;40838;50.676;7.838;2022-12-18T07:12:00;99443.31;;;-4.53;100.00
54936;BME280;40838;50.676;7.838;2022-12-18T07:14:27;99440.50;;;-4.50;100.00
54936;BME280;40838;50.676;7.838;2022-12-18T07:16:54;99429.56;;;-4.53;100.00
54936;BME280;40838;50.676;7.838;2022-12-18T07:19:24;99435.56;;;-4.42;100.00
54936;BME280;40838;50.676;7.838;2022-12-18T07:21:52;99426.09;;;-4.41;100.00
54936;BME280;40838;50.676;7.838;2022-12-18T07:24:19;99422.25;;;-4.36;100.00
54936;BME280;40838;50.676;7.838;2022-12-18T07:26:46;99440.97;;;-4.34;100.00
54936;BME280;40838;50.676;7.838;2022-12-18T07:29:13;99449.66;;;-4.35;100.00
54936;BME280;40838;50.676;7.838;2022-12-18T07:31:41;99433.47;;;-4.37;100.00
54936;BME280;40838;50.676;7.838;2022-12-18T07:34:10;99437.34;;;-4.31;100.00
54936;BME280;40838;50.676;7.838;2022-12-18T07:36:37;99432.31;;;-4.32;100.00
54936;BME280;40838;50.676;7.838;2022-12-18T07:39:08;99434.44;;;-4.26;100.00
54936;BME280;40838;50.676;7.838;2022-12-18T07:41:34;99429.53;;;-4.18;100.00
54936;BME280;40838;50.676;7.838;2022-12-18T07:44:09;99430.34;;;-4.18;100.00
54936;BME280;40838;50.676;7.838;2022-12-18T07:46:36;99434.88;;;-4.10;100.00
54936;BME280;40838;50.676;7.838;2022-12-18T07:49:03;99443.91;;;-4.04;100.00
54936;BME280;40838;50.676;7.838;2022-12-18T07:51:30;99437.72;;;-4.13;100.00
54936;BME280;40838;50.676;7.838;2022-12-18T07:53:57;99438.28;;;-4.10;100.00
54936;BME280;40838;50.676;7.838;2022-12-18T07:56:25;99439.72;;;-3.94;100.00
54936;BME280;40838;50.676;7.838;2022-12-18T07:58:52;99425.88;;;-3.93;100.00
54936;BME280;40838;50.676;7.838;2022-12-18T08:01:19;99432.66;;;-3.92;100.00
54936;BME280;40838;50.676;7.838;2022-12-18T08:03:45;99447.91;;;-4.00;100.00
54936;BME280;40838;50.676;7.838;2022-12-18T08:06:13;99431.16;;;-3.95;100.00
54936;BME280;40838;50.676;7.838;2022-12-18T08:08:39;99429.03;;;-3.90;100.00
54936;BME280;40838;50.676;7.838;2022-12-18T08:11:09;99428.09;;;-3.89;100.00
54936;BME280;40838;50.676;7.838;2022-12-18T08:13:38;99431.03;;;-3.82;100.00
54936;BME280;40838;50.676;7.838;2022-12-18T08:16:06;99439.72;;;-3.83;100.00
54936;BME280;40838;50.676;7.838;2022-12-18T08:18:35;99434.72;;;-3.63;100.00
54936;BME280;40838;50.676;7.838;2022-12-18T08:21:08;99416.09;;;-3.56;100.00
54936;BME280;40838;50.676;7.838;2022-12-18T08:23:35;99435.75;;;-3.44;100.00
54936;BME280;40838;50.676;7.838;2022-12-18T08:26:04;99427.31;;;-3.46;100.00
54936;BME280;40838;50.676;7.838;2022-12-18T08:28:31;99428.81;;;-3.32;100.00
54936;BME280;40838;50.676;7.838;2022-12-18T08:30:59;99418.19;;;-3.17;100.00
54936;BME280;40838;50.676;7.838;2022-12-18T08:33:26;99409.19;;;-3.02;100.00
54936;BME280;40838;50.676;7.838;2022-12-18T08:35:53;99415.63;;;-2.76;100.00
54936;BME280;40838;50.676;7.838;2022-12-18T08:38:20;99402.69;;;-2.55;100.00
54936;BME280;40838;50.676;7.838;2022-12-18T08:40:48;99402.31;;;-1.89;100.00
54936;BME280;40838;50.676;7.838;2022-12-18T08:43:17;99398.56;;;-1.55;100.00
54936;BME280;40838;50.676;7.838;2022-12-18T08:46:04;99378.84;;;-1.27;100.00
54936;BME280;40838;50.676;7.838;2022-12-18T08:48:32;99386.69;;;-0.71;100.00
54936;BME280;40838;50.676;7.838;2022-12-18T08:51:00;99391.91;;;-1.48;100.00
54936;BME280;40838;50.676;7.838;2022-12-18T08:53:27;99385.91;;;-1.29;100.00
54936;BME280;40838;50.676;7.838;2022-12-18T08:55:56;99372.53;;;-1.05;100.00
54936;BME280;40838;50.676;7.838;2022-12-18T08:58:23;99380.66;;;-0.52;100.00
54936;BME280;40838;50.676;7.838;2022-12-18T09:00:51;99366.50;;;-0.77;100.00
54936;BME280;40838;50.676;7.838;2022-12-18T09:03:19;99386.13;;;-0.64;100.00
54936;BME280;40838;50.676;7.838;2022-12-18T09:05:48;99387.78;;;-0.63;100.00
54936;BME280;40838;50.676;7.838;2022-12-18T09:08:15;99394.88;;;-0.65;100.00
54936;BME280;40838;50.676;7.838;2022-12-18T09:10:45;99381.91;;;-0.65;100.00
54936;BME280;40838;50.676;7.838;2022-12-18T09:13:12;99390.63;;;-0.57;100.00
54936;BME280;40838;50.676;7.838;2022-12-18T09:15:41;99396.59;;;-0.09;100.00
54936;BME280;40838;50.676;7.838;2022-12-18T09:18:08;99386.53;;;-0.59;100.00
54936;BME280;40838;50.676;7.838;2022-12-18T09:20:37;99374.22;;;-0.48;100.00
54936;BME280;40838;50.676;7.838;2022-12-18T09:23:04;99347.56;;;-0.40;100.00
54936;BME280;40838;50.676;7.838;2022-12-18T09:25:32;99395.59;;;-0.36;100.00
54936;BME280;40838;50.676;7.838;2022-12-18T09:28:04;99383.63;;;-0.09;100.00
54936;BME280;40838;50.676;7.838;2022-12-18T09:30:31;99376.88;;;-0.30;100.00
54936;BME280;40838;50.676;7.838;2022-12-18T09:32:59;99373.13;;;-0.45;100.00
54936;BME280;40838;50.676;7.838;2022-12-18T09:35:26;99370.84;;;-0.58;100.00
54936;BME280;40838;50.676;7.838;2022-12-18T09:37:55;99372.69;;;-0.87;100.00
54936;BME280;40838;50.676;7.838;2022-12-18T09:40:25;99389.69;;;-0.65;100.00
54936;BME280;40838;50.676;7.838;2022-12-18T09:42:56;99388.47;;;-0.61;100.00
54936;BME280;40838;50.676;7.838;2022-12-18T09:45:24;99381.50;;;-0.61;100.00
54936;BME280;40838;50.676;7.838;2022-12-18T09:47:52;99401.72;;;-0.84;100.00
54936;BME280;40838;50.676;7.838;2022-12-18T09:50:24;99398.31;;;-0.28;100.00
54936;BME280;40838;50.676;7.838;2022-12-18T09:52:58;99401.63;;;0.20;100.00
54936;BME280;40838;50.676;7.838;2022-12-18T09:55:29;99399.94;;;0.29;100.00
54936;BME280;40838;50.676;7.838;2022-12-18T09:58:02;99367.69;;;0.31;100.00
54936;BME280;40838;50.676;7.838;2022-12-18T10:00:31;99373.88;;;0.03;100.00
54936;BME280;40838;50.676;7.838;2022-12-18T10:03:00;99358.56;;;0.09;100.00
54936;BME280;40838;50.676;7.838;2022-12-18T10:05:35;99366.47;;;-0.20;100.00
54936;BME280;40838;50.676;7.838;2022-12-18T10:08:09;99346.69;;;-0.58;100.00
54936;BME280;40838;50.676;7.838;2022-12-18T10:10:45;99344.34;;;-0.52;100.00
54936;BME280;40838;50.676;7.838;2022-12-18T10:13:19;99344.31;;;-0.42;100.00
54936;BME280;40838;50.676;7.838;2022-12-18T10:15:58;99350.38;;;-0.61;100.00
54936;BME280;40838;50.676;7.838;2022-12-18T10:18:39;99332.94;;;-0.69;100.00
54936;BME280;40838;50.676;7.838;2022-12-18T10:21:16;99364.72;;;-0.76;100.00
54936;BME280;40838;50.676;7.838;2022-12-18T10:23:53;99360.56;;;-1.06;100.00
54936;BME280;40838;50.676;7.838;2022-12-18T10:26:23;99335.06;;;-1.01;100.00
54936;BME280;40838;50.676;7.838;2022-12-18T10:28:51;99331.50;;;-0.90;100.00
54936;BME280;40838;50.676;7.838;2022-12-18T10:31:24;99348.97;;;-1.02;100.00
54936;BME280;40838;50.676;7.838;2022-12-18T10:33:53;99346.47;;;-0.75;100.00
54936;BME280;40838;50.676;7.838;2022-12-18T10:36:22;99327.13;;;-1.00;100.00
54936;BME280;40838;50.676;7.838;2022-12-18T10:38:51;99335.06;;;-1.01;100.00
54936;BME280;40838;50.676;7.838;2022-12-18T10:41:25;99334.22;;;-0.92;100.00
54936;BME280;40838;50.676;7.838;2022-12-18T10:44:12;99342.81;;;-0.92;100.00
54936;BME280;40838;50.676;7.838;2022-12-18T10:46:39;99330.00;;;-0.93;100.00
54936;BME280;40838;50.676;7.838;2022-12-18T10:49:18;99317.44;;;-0.88;100.00
54936;BME280;40838;50.676;7.838;2022-12-18T10:51:46;99326.31;;;-1.00;100.00
54936;BME280;40838;50.676;7.838;2022-12-18T10:54:20;99332.69;;;-0.75;100.00
54936;BME280;40838;50.676;7.838;2022-12-18T10:56:48;99318.66;;;-0.45;100.00
54936;BME280;40838;50.676;7.838;2022-12-18T10:59:17;99314.75;;;-0.59;100.00
54936;BME280;40838;50.676;7.838;2022-12-18T11:01:50;99314.88;;;-0.98;100.00
54936;BME280;40838;50.676;7.838;2022-12-18T11:04:20;99327.97;;;-0.99;100.00
54936;BME280;40838;50.676;7.838;2022-12-18T11:06:59;99326.41;;;-0.82;100.00
54936;BME280;40838;50.676;7.838;2022-12-18T11:09:28;99332.34;;;-1.09;100.00
54936;BME280;40838;50.676;7.838;2022-12-18T11:11:59;99325.63;;;-0.93;100.00
54936;BME280;40838;50.676;7.838;2022-12-18T11:14:29;99315.00;;;-0.89;100.00
54936;BME280;40838;50.676;7.838;2022-12-18T11:16:59;99309.19;;;-1.21;100.00
54936;BME280;40838;50.676;7.838;2022-12-18T11:19:31;99309.72;;;-1.27;100.00
54936;BME280;40838;50.676;7.838;2022-12-18T11:22:01;99332.78;;;-1.53;100.00
54936;BME280;40838;50.676;7.838;2022-12-18T11:24:31;99293.78;;;-1.32;100.00
54936;BME280;40838;50.676;7.838;2022-12-18T11:27:02;99292.03;;;-1.41;100.00
54936;BME280;40838;50.676;7.838;2022-12-18T11:29:34;99304.44;;;-1.45;100.00
54936;BME280;40838;50.676;7.838;2022-12-18T11:35:15;99310.28;;;-1.52;100.00
54936;BME280;40838;50.676;7.838;2022-12-18T11:37:49;99313.56;;;-1.31;100.00
54936;BME280;40838;50.676;7.838;2022-12-18T11:40:29;99323.47;;;-1.94;100.00
54936;BME280;40838;50.676;7.838;2022-12-18T11:43:04;99331.28;;;-1.36;100.00
54936;BME280;40838;50.676;7.838;2022-12-18T11:45:35;99331.84;;;-1.52;100.00
54936;BME280;40838;50.676;7.838;2022-12-18T11:48:09;99342.84;;;-1.30;100.00
54936;BME280;40838;50.676;7.838;2022-12-18T11:50:47;99329.09;;;-1.31;100.00
54936;BME280;40838;50.676;7.838;2022-12-18T11:53:16;99338.50;;;-1.59;100.00
54936;BME280;40838;50.676;7.838;2022-12-18T11:58:41;99363.81;;;-1.63;100.00
54936;BME280;40838;50.676;7.838;2022-12-18T12:01:17;99333.16;;;-2.37;100.00
54936;BME280;40838;50.676;7.838;2022-12-18T12:04:08;99333.00;;;-2.04;100.00
54936;BME280;40838;50.676;7.838;2022-12-18T12:06:48;99325.09;;;-1.93;100.00
54936;BME280;40838;50.676;7.838;2022-12-18T12:09:23;99321.97;;;-1.97;100.00
54936;BME280;40838;50.676;7.838;2022-12-18T12:12:10;99297.53;;;-2.23;100.00
54936;BME280;40838;50.676;7.838;2022-12-18T12:14:49;99324.09;;;-2.21;100.00
54936;BME280;40838;50.676;7.838;2022-12-18T12:17:27;99318.53;;;-2.57;100.00
54936;BME280;40838;50.676;7.838;2022-12-18T12:20:05;99309.09;;;-2.68;100.00
54936;BME280;40838;50.676;7.838;2022-12-18T12:22:41;99309.41;;;-2.82;100.00
54936;BME280;40838;50.676;7.838;2022-12-18T12:25:21;99336.63;;;-2.78;100.00
54936;BME280;40838;50.676;7.838;2022-12-18T12:28:01;99333.13;;;-2.98;100.00
54936;BME280;40838;50.676;7.838;2022-12-18T12:30:39;99324.19;;;-2.94;100.00
54936;BME280;40838;50.676;7.838;2022-12-18T12:33:22;99340.88;;;-2.77;100.00
54936;BME280;40838;50.676;7.838;2022-12-18T12:36:02;99338.16;;;-3.17;100.00
54936;BME280;40838;50.676;7.838;2022-12-18T12:38:40;99337.44;;;-2.99;100.00
54936;BME280;40838;50.676;7.838;2022-12-18T12:41:12;99336.91;;;-3.23;100.00
54936;BME280;40838;50.676;7.838;2022-12-18T12:43:57;99329.97;;;-3.23;100.00
54936;BME280;40838;50.676;7.838;2022-12-18T12:46:27;99343.97;;;-3.36;100.00
54936;BME280;40838;50.676;7.838;2022-12-18T12:49:00;99334.88;;;-3.40;100.00
54936;BME280;40838;50.676;7.838;2022-12-18T12:51:32;99315.53;;;-3.46;100.00
54936;BME280;40838;50.676;7.838;2022-12-18T12:54:00;99324.53;;;-3.40;100.00
54936;BME280;40838;50.676;7.838;2022-12-18T12:56:39;99316.22;;;-3.44;100.00
54936;BME280;40838;50.676;7.838;2022-12-18T12:59:15;99319.63;;;-3.44;100.00
54936;BME280;40838;50.676;7.838;2022-12-18T13:01:52;99312.59;;;-3.42;100.00
54936;BME280;40838;50.676;7.838;2022-12-18T13:04:26;99310.16;;;-3.54;100.00
54936;BME280;40838;50.676;7.838;2022-12-18T13:06:58;99308.84;;;-3.49;100.00
54936;BME280;40838;50.676;7.838;2022-12-18T13:09:31;99325.75;;;-3.45;100.00
54936;BME280;40838;50.676;7.838;2022-12-18T13:12:07;99307.97;;;-3.59;100.00
54936;BME280;40838;50.676;7.838;2022-12-18T13:15:12;99315.28;;;-3.75;100.00
54936;BME280;40838;50.676;7.838;2022-12-18T13:17:40;99327.31;;;-3.53;100.00